Alexandria, Egypt

9:56 PM EET on August 04, 2015 (GMT +0200)
Shatby | | Change Station
CLOSE
Current Station
Personal Weather Station
Location: Alexandria Governorate, ALEXANDRIA GOVERNORATE
Elevation: 59 ft
Nearby Weather Stations

Elev 59 ft 31.21 °N, 29.92 °E | Updated 8 seconds ago

Scattered Clouds
Scattered Clouds
85.8 °F
Feels Like 103 °F
N
0.2
Wind Variable Wind from NW
Gusts 2.5 mph

Today
High -- | Low -- °F
--% Chance of Precip.
Yesterday
High -- | Low -- °F
Precip. -- in
5:18 AM 6:53 PM
Waning Gibbous, 75% visible
Pressure 29.80 in
Visibility 6.2 miles
Clouds Scattered Clouds 2000 ft
Heat Index 103 °F
Dew Point 82 °F
Humidity 88%
Rainfall 0.00 in
Snow Depth Not available.
UV 0.0 out of 12
Pollen Not available.
Air Quality Not available.
Flu Activity Not available.
METAR HEAX 041900Z 33009KT 9999 SCT020 28/23 Q1009 NOSIG

More Conditions Fewer Conditions

Pressure 29.80 in
Visibility 6.2 miles
Clouds Scattered Clouds 2000 ft
Heat Index 103 °F
Dew Point 82 °F
Humidity 88%
Rainfall 0.00 in
Snow Depth Not available.
UV 0.0 out of 12
Pollen Not available.
Air Quality Not available.
Flu Activity Not available.
METAR HEAX 041900Z 33009KT 9999 SCT020 28/23 Q1009 NOSIG

More Conditions Fewer Conditions

10-Day Weather Forecast

×

Almanac

Astronomy

Aug. 04, 2015 Rise Set
Actual Time
Civil Twilight
Nautical Twilight
Astronomical Twilight
Moon
Length of Visible Light
Length of Day
Tomorrow will be .
, % of the Moon is Illuminated

Today's Extremes

Country Highs Country Lows

Community

WunderPhotos

Upload Photos

1,843,956 photos uploaded!

WunderBlogs® & News

Nearby

Air Quality

  Air Quality AQ Index Pollutant
Not available.

Snow Depth

Station Depth Elevation

Earthquake Activity

City Distance Mag. Time & Date
Minimum magnitude displayed is 2.5.

Coastal Water Temperatures

Place Temperature

Stations

Nearby Weather Stations

Station Location Temp. Windchill Dew Point Humidity Wind Precip. Elev Updated Type